Terminal Aerodrome Forecast
Issued by NWS Des Moines, IA

Home | Current Version | Previous Version | Text Only | Print | Product List | Glossary On
Versions: 1 2 3 4 5 6 7 8 9 10 11 12 13 14 15 16 17 18 19 20 21
000
FTUS43 KDMX 011135
TAFALO
TAF
KALO 011135Z 0112/0212 05012KT P6SM OVC015
     FM011600 03013KT 3SM -RA BR SCT006 OVC012
     FM012300 02012KT 6SM BR VCSH BKN025 OVC040
     FM020200 35009KT P6SM BKN060
     FM021000 02003KT 4SM BR SCT003 BKN040=

USA.gov is the U.S. government's official web portal to all federal, state and local government web resources and services.